sensor_id;sensor_type;location;lat;lon;timestamp;pressure;altitude;pressure_sealevel;temperature;humidity
83185;BME280;73080;48.768;11.528;2023-11-21T00:00:48;96556.25;;;6.70;85.08
83185;BME280;73080;48.768;11.528;2023-11-21T00:03:13;96550.78;;;6.83;84.57
83185;BME280;73080;48.768;11.528;2023-11-21T00:05:38;96541.38;;;6.82;84.48
83185;BME280;73080;48.768;11.528;2023-11-21T00:08:07;96550.34;;;6.86;84.04
83185;BME280;73080;48.768;11.528;2023-11-21T00:10:32;96554.47;;;7.10;83.87
83185;BME280;73080;48.768;11.528;2023-11-21T00:12:57;96544.28;;;7.09;83.96
83185;BME280;73080;48.768;11.528;2023-11-21T00:15:23;96549.13;;;7.17;83.19
83185;BME280;73080;48.768;11.528;2023-11-21T00:17:48;96542.47;;;7.09;83.53
83185;BME280;73080;48.768;11.528;2023-11-21T00:20:14;96546.56;;;7.05;82.60
83185;BME280;73080;48.768;11.528;2023-11-21T00:22:39;96548.94;;;6.95;84.19
83185;BME280;73080;48.768;11.528;2023-11-21T00:25:05;96551.31;;;6.97;83.88
83185;BME280;73080;48.768;11.528;2023-11-21T00:27:30;96551.69;;;6.88;84.49
83185;BME280;73080;48.768;11.528;2023-11-21T00:29:56;96550.22;;;6.81;84.76
83185;BME280;73080;48.768;11.528;2023-11-21T00:32:21;96544.88;;;6.87;84.62
83185;BME280;73080;48.768;11.528;2023-11-21T00:34:47;96550.22;;;6.81;84.79
83185;BME280;73080;48.768;11.528;2023-11-21T00:37:15;96556.34;;;6.86;85.02
83185;BME280;73080;48.768;11.528;2023-11-21T00:39:40;96551.00;;;6.81;85.46
83185;BME280;73080;48.768;11.528;2023-11-21T00:42:06;96549.78;;;6.84;85.42
83185;BME280;73080;48.768;11.528;2023-11-21T00:44:31;96546.03;;;6.80;85.12
83185;BME280;73080;48.768;11.528;2023-11-21T00:47:00;96538.88;;;6.87;84.74
83185;BME280;73080;48.768;11.528;2023-11-21T00:49:25;96550.22;;;6.93;85.14
83185;BME280;73080;48.768;11.528;2023-11-21T00:51:51;96538.75;;;6.94;85.06
83185;BME280;73080;48.768;11.528;2023-11-21T00:54:16;96549.19;;;6.94;85.44
83185;BME280;73080;48.768;11.528;2023-11-21T00:56:42;96550.09;;;6.87;84.87
83185;BME280;73080;48.768;11.528;2023-11-21T00:59:07;96547.50;;;6.87;84.63
83185;BME280;73080;48.768;11.528;2023-11-21T01:01:32;96543.00;;;7.11;84.88
83185;BME280;73080;48.768;11.528;2023-11-21T01:03:58;96544.38;;;7.14;84.07
83185;BME280;73080;48.768;11.528;2023-11-21T01:06:26;96556.88;;;7.12;84.56
83185;BME280;73080;48.768;11.528;2023-11-21T01:08:52;96550.84;;;7.11;84.74
83185;BME280;73080;48.768;11.528;2023-11-21T01:11:20;96549.19;;;7.05;84.20
83185;BME280;73080;48.768;11.528;2023-11-21T01:13:46;96555.75;;;7.08;84.49
83185;BME280;73080;48.768;11.528;2023-11-21T01:16:14;96544.75;;;7.06;84.75
83185;BME280;73080;48.768;11.528;2023-11-21T01:18:42;96547.91;;;7.20;84.50
83185;BME280;73080;48.768;11.528;2023-11-21T01:21:07;96547.97;;;7.25;84.23
83185;BME280;73080;48.768;11.528;2023-11-21T01:23:33;96545.00;;;7.33;83.93
83185;BME280;73080;48.768;11.528;2023-11-21T01:25:58;96544.88;;;7.39;84.11
83185;BME280;73080;48.768;11.528;2023-11-21T01:28:24;96535.78;;;7.42;84.09
83185;BME280;73080;48.768;11.528;2023-11-21T01:30:49;96536.97;;;7.34;84.04
83185;BME280;73080;48.768;11.528;2023-11-21T01:33:15;96538.28;;;7.49;83.47
83185;BME280;73080;48.768;11.528;2023-11-21T01:35:43;96540.31;;;7.47;83.25
83185;BME280;73080;48.768;11.528;2023-11-21T01:38:08;96531.13;;;7.44;83.54
83185;BME280;73080;48.768;11.528;2023-11-21T01:40:34;96539.50;;;7.46;83.45
83185;BME280;73080;48.768;11.528;2023-11-21T01:43:00;96532.94;;;7.43;83.82
83185;BME280;73080;48.768;11.528;2023-11-21T01:45:25;96532.81;;;7.50;83.75
83185;BME280;73080;48.768;11.528;2023-11-21T01:47:51;96523.91;;;7.34;83.34
83185;BME280;73080;48.768;11.528;2023-11-21T01:50:18;96534.06;;;7.48;83.54
83185;BME280;73080;48.768;11.528;2023-11-21T01:52:46;96524.97;;;7.50;83.70
83185;BME280;73080;48.768;11.528;2023-11-21T01:55:14;96527.34;;;7.52;84.07
83185;BME280;73080;48.768;11.528;2023-11-21T01:57:41;96526.56;;;7.51;83.84
83185;BME280;73080;48.768;11.528;2023-11-21T02:00:06;96525.66;;;7.46;83.83
83185;BME280;73080;48.768;11.528;2023-11-21T02:02:32;96521.22;;;7.46;83.50
83185;BME280;73080;48.768;11.528;2023-11-21T02:04:57;96525.78;;;7.39;83.63
83185;BME280;73080;48.768;11.528;2023-11-21T02:07:26;96527.59;;;7.50;82.96
83185;BME280;73080;48.768;11.528;2023-11-21T02:09:51;96526.41;;;7.29;83.64
83185;BME280;73080;48.768;11.528;2023-11-21T02:12:16;96514.81;;;7.25;83.77
83185;BME280;73080;48.768;11.528;2023-11-21T02:14:42;96522.75;;;7.30;84.21
83185;BME280;73080;48.768;11.528;2023-11-21T02:17:07;96518.81;;;7.28;83.95
83185;BME280;73080;48.768;11.528;2023-11-21T02:19:33;96515.66;;;7.14;83.87
83185;BME280;73080;48.768;11.528;2023-11-21T02:21:59;96517.72;;;7.12;84.52
83185;BME280;73080;48.768;11.528;2023-11-21T02:24:25;96516.38;;;7.38;83.37
83185;BME280;73080;48.768;11.528;2023-11-21T02:26:51;96521.38;;;7.39;83.16
83185;BME280;73080;48.768;11.528;2023-11-21T02:29:20;96519.66;;;7.45;83.72
83185;BME280;73080;48.768;11.528;2023-11-21T02:31:46;96511.28;;;7.31;83.96
83185;BME280;73080;48.768;11.528;2023-11-21T02:34:11;96516.63;;;7.36;83.72
83185;BME280;73080;48.768;11.528;2023-11-21T02:36:37;96521.75;;;7.31;84.06
83185;BME280;73080;48.768;11.528;2023-11-21T02:39:02;96517.72;;;7.12;84.26
83185;BME280;73080;48.768;11.528;2023-11-21T02:41:28;96516.13;;;7.11;84.97
83185;BME280;73080;48.768;11.528;2023-11-21T02:43:57;96513.97;;;7.08;85.07
83185;BME280;73080;48.768;11.528;2023-11-21T02:46:26;96515.47;;;7.04;85.22
83185;BME280;73080;48.768;11.528;2023-11-21T02:48:51;96516.13;;;7.11;85.08
83185;BME280;73080;48.768;11.528;2023-11-21T02:51:16;96518.84;;;7.16;85.12
83185;BME280;73080;48.768;11.528;2023-11-21T02:53:42;96521.56;;;7.21;85.10
83185;BME280;73080;48.768;11.528;2023-11-21T02:56:07;96514.03;;;7.25;84.82
83185;BME280;73080;48.768;11.528;2023-11-21T02:58:36;96511.22;;;7.26;84.79
83185;BME280;73080;48.768;11.528;2023-11-21T03:01:01;96516.69;;;7.13;85.26
83185;BME280;73080;48.768;11.528;2023-11-21T03:03:33;96515.47;;;7.32;84.51
83185;BME280;73080;48.768;11.528;2023-11-21T03:06:01;96514.94;;;7.30;84.44
83185;BME280;73080;48.768;11.528;2023-11-21T03:08:26;96511.25;;;7.14;85.03
83185;BME280;73080;48.768;11.528;2023-11-21T03:10:52;96512.03;;;7.15;85.18
83185;BME280;73080;48.768;11.528;2023-11-21T03:13:17;96502.38;;;7.15;84.65
83185;BME280;73080;48.768;11.528;2023-11-21T03:15:43;96513.16;;;7.19;85.19
83185;BME280;73080;48.768;11.528;2023-11-21T03:18:08;96508.56;;;6.98;85.38
83185;BME280;73080;48.768;11.528;2023-11-21T03:20:33;96508.78;;;6.96;85.27
83185;BME280;73080;48.768;11.528;2023-11-21T03:22:59;96515.03;;;6.95;85.85
83185;BME280;73080;48.768;11.528;2023-11-21T03:25:24;96508.66;;;7.03;85.63
83185;BME280;73080;48.768;11.528;2023-11-21T03:27:50;96508.81;;;6.84;86.53
83185;BME280;73080;48.768;11.528;2023-11-21T03:30:15;96509.91;;;7.00;85.74
83185;BME280;73080;48.768;11.528;2023-11-21T03:32:40;96508.66;;;7.03;86.02
83185;BME280;73080;48.768;11.528;2023-11-21T03:35:09;96504.28;;;6.92;86.26
83185;BME280;73080;48.768;11.528;2023-11-21T03:37:34;96512.53;;;7.00;85.91
83185;BME280;73080;48.768;11.528;2023-11-21T03:40:00;96507.63;;;7.04;85.89
83185;BME280;73080;48.768;11.528;2023-11-21T03:42:25;96513.88;;;7.03;85.87
83185;BME280;73080;48.768;11.528;2023-11-21T03:44:51;96501.72;;;7.08;85.64
83185;BME280;73080;48.768;11.528;2023-11-21T03:47:16;96513.50;;;7.11;85.40
83185;BME280;73080;48.768;11.528;2023-11-21T03:49:42;96510.59;;;7.36;84.94
83185;BME280;73080;48.768;11.528;2023-11-21T03:52:07;96502.75;;;7.07;85.37
83185;BME280;73080;48.768;11.528;2023-11-21T03:54:32;96506.78;;;7.27;85.05
83185;BME280;73080;48.768;11.528;2023-11-21T03:56:58;96514.75;;;7.49;84.31
83185;BME280;73080;48.768;11.528;2023-11-21T03:59:26;96505.25;;;7.42;84.39
83185;BME280;73080;48.768;11.528;2023-11-21T04:01:52;96506.19;;;7.53;84.47
83185;BME280;73080;48.768;11.528;2023-11-21T04:04:17;96502.50;;;7.49;84.40
83185;BME280;73080;48.768;11.528;2023-11-21T04:06:42;96507.09;;;7.59;84.19
83185;BME280;73080;48.768;11.528;2023-11-21T04:09:08;96503.78;;;7.63;84.22
83185;BME280;73080;48.768;11.528;2023-11-21T04:11:33;96509.41;;;7.55;84.00
83185;BME280;73080;48.768;11.528;2023-11-21T04:13:59;96514.28;;;7.52;83.81
83185;BME280;73080;48.768;11.528;2023-11-21T04:16:24;96508.50;;;7.21;84.56
83185;BME280;73080;48.768;11.528;2023-11-21T04:18:50;96519.06;;;7.26;84.60
83185;BME280;73080;48.768;11.528;2023-11-21T04:21:16;96516.22;;;7.16;84.76
83185;BME280;73080;48.768;11.528;2023-11-21T04:23:42;96510.88;;;7.23;84.52
83185;BME280;73080;48.768;11.528;2023-11-21T04:26:07;96511.44;;;7.25;84.68
83185;BME280;73080;48.768;11.528;2023-11-21T04:28:33;96521.56;;;7.21;85.19
83185;BME280;73080;48.768;11.528;2023-11-21T04:30:58;96521.19;;;7.29;84.96
83185;BME280;73080;48.768;11.528;2023-11-21T04:33:23;96518.69;;;7.34;84.90
83185;BME280;73080;48.768;11.528;2023-11-21T04:35:52;96525.06;;;7.55;84.35
83185;BME280;73080;48.768;11.528;2023-11-21T04:38:17;96518.47;;;7.53;84.45
83185;BME280;73080;48.768;11.528;2023-11-21T04:40:43;96520.78;;;7.49;84.83
83185;BME280;73080;48.768;11.528;2023-11-21T04:43:09;96528.06;;;7.47;84.60
83185;BME280;73080;48.768;11.528;2023-11-21T04:45:34;96521.53;;;7.61;84.29
83185;BME280;73080;48.768;11.528;2023-11-21T04:48:00;96523.81;;;7.58;84.34
83185;BME280;73080;48.768;11.528;2023-11-21T04:50:25;96528.75;;;7.71;83.86
83185;BME280;73080;48.768;11.528;2023-11-21T04:52:51;96520.72;;;7.61;83.71
83185;BME280;73080;48.768;11.528;2023-11-21T04:55:16;96517.00;;;7.74;83.40
83185;BME280;73080;48.768;11.528;2023-11-21T04:57:41;96526.09;;;7.54;83.58
83185;BME280;73080;48.768;11.528;2023-11-21T05:00:09;96521.06;;;7.36;83.95
83185;BME280;73080;48.768;11.528;2023-11-21T05:02:35;96522.38;;;7.67;83.33
83185;BME280;73080;48.768;11.528;2023-11-21T05:05:00;96523.84;;;7.46;83.59
83185;BME280;73080;48.768;11.528;2023-11-21T05:07:26;96531.75;;;7.63;83.53
83185;BME280;73080;48.768;11.528;2023-11-21T05:09:51;96532.44;;;7.58;83.80
83185;BME280;73080;48.768;11.528;2023-11-21T05:12:17;96535.75;;;7.82;82.74
83185;BME280;73080;48.768;11.528;2023-11-21T05:14:42;96528.06;;;7.47;84.13
83185;BME280;73080;48.768;11.528;2023-11-21T05:17:07;96535.66;;;7.49;84.59
83185;BME280;73080;48.768;11.528;2023-11-21T05:19:34;96539.38;;;7.53;84.76
83185;BME280;73080;48.768;11.528;2023-11-21T05:21:59;96539.34;;;7.64;84.03
83185;BME280;73080;48.768;11.528;2023-11-21T05:24:27;96535.72;;;7.54;83.97
83185;BME280;73080;48.768;11.528;2023-11-21T05:26:53;96537.69;;;7.47;84.38
83185;BME280;73080;48.768;11.528;2023-11-21T05:29:18;96521.56;;;7.50;84.30
83185;BME280;73080;48.768;11.528;2023-11-21T05:31:43;96527.09;;;7.25;85.00
83185;BME280;73080;48.768;11.528;2023-11-21T05:34:09;96530.63;;;7.19;85.67
83185;BME280;73080;48.768;11.528;2023-11-21T05:36:34;96529.03;;;7.29;85.80
83185;BME280;73080;48.768;11.528;2023-11-21T05:39:00;96529.56;;;7.31;85.90
83185;BME280;73080;48.768;11.528;2023-11-21T05:41:25;96529.91;;;7.35;85.49
83185;BME280;73080;48.768;11.528;2023-11-21T05:43:51;96535.06;;;7.18;86.25
83185;BME280;73080;48.768;11.528;2023-11-21T05:46:16;96536.84;;;7.29;85.87
83185;BME280;73080;48.768;11.528;2023-11-21T05:48:41;96540.50;;;7.28;86.00
83185;BME280;73080;48.768;11.528;2023-11-21T05:51:07;96540.94;;;7.25;85.83
83185;BME280;73080;48.768;11.528;2023-11-21T05:53:33;96536.88;;;7.18;86.11
83185;BME280;73080;48.768;11.528;2023-11-21T05:55:58;96543.28;;;6.98;86.50
83185;BME280;73080;48.768;11.528;2023-11-21T05:58:26;96543.38;;;7.03;86.20
83185;BME280;73080;48.768;11.528;2023-11-21T06:00:52;96548.22;;;7.11;85.97
83185;BME280;73080;48.768;11.528;2023-11-21T06:03:17;96549.72;;;7.07;86.25
83185;BME280;73080;48.768;11.528;2023-11-21T06:05:43;96551.31;;;7.08;86.39
83185;BME280;73080;48.768;11.528;2023-11-21T06:08:08;96544.28;;;7.09;86.25
83185;BME280;73080;48.768;11.528;2023-11-21T06:10:36;96548.22;;;7.11;86.20
83185;BME280;73080;48.768;11.528;2023-11-21T06:13:02;96547.97;;;7.25;85.90
83185;BME280;73080;48.768;11.528;2023-11-21T06:15:27;96555.50;;;7.21;86.09
83185;BME280;73080;48.768;11.528;2023-11-21T06:17:53;96555.38;;;7.16;86.52
83185;BME280;73080;48.768;11.528;2023-11-21T06:20:19;96557.88;;;7.11;86.52
83185;BME280;73080;48.768;11.528;2023-11-21T06:22:47;96555.50;;;7.09;86.43
83185;BME280;73080;48.768;11.528;2023-11-21T06:25:13;96555.84;;;7.13;86.55
83185;BME280;73080;48.768;11.528;2023-11-21T06:27:46;96554.72;;;7.09;86.45
83185;BME280;73080;48.768;11.528;2023-11-21T06:30:13;96561.56;;;6.98;87.12
83185;BME280;73080;48.768;11.528;2023-11-21T06:32:39;96563.03;;;7.06;86.87
83185;BME280;73080;48.768;11.528;2023-11-21T06:35:05;96565.94;;;7.09;86.73
83185;BME280;73080;48.768;11.528;2023-11-21T06:37:31;96573.88;;;7.26;86.48
83185;BME280;73080;48.768;11.528;2023-11-21T06:39:58;96569.44;;;7.27;86.09
83185;BME280;73080;48.768;11.528;2023-11-21T06:42:24;96571.81;;;7.28;86.49
83185;BME280;73080;48.768;11.528;2023-11-21T06:44:50;96568.78;;;7.20;86.76
83185;BME280;73080;48.768;11.528;2023-11-21T06:47:19;96573.41;;;7.18;86.83
83185;BME280;73080;48.768;11.528;2023-11-21T06:49:44;96581.59;;;7.21;86.76
83185;BME280;73080;48.768;11.528;2023-11-21T06:52:09;96580.34;;;7.24;86.59
83185;BME280;73080;48.768;11.528;2023-11-21T06:54:37;96582.28;;;7.16;86.84
83185;BME280;73080;48.768;11.528;2023-11-21T06:57:02;96585.81;;;7.10;87.21
83185;BME280;73080;48.768;11.528;2023-11-21T06:59:30;96589.56;;;7.26;86.68
83185;BME280;73080;48.768;11.528;2023-11-21T07:01:56;96594.63;;;7.33;86.28
83185;BME280;73080;48.768;11.528;2023-11-21T07:04:22;96594.53;;;7.16;86.68
83185;BME280;73080;48.768;11.528;2023-11-21T07:06:47;96593.94;;;7.26;86.58
83185;BME280;73080;48.768;11.528;2023-11-21T07:09:13;96593.38;;;7.35;86.10
83185;BME280;73080;48.768;11.528;2023-11-21T07:11:38;96595.31;;;7.28;85.98
83185;BME280;73080;48.768;11.528;2023-11-21T07:14:04;96597.16;;;7.16;86.44
83185;BME280;73080;48.768;11.528;2023-11-21T07:16:29;96595.13;;;7.06;86.75
83185;BME280;73080;48.768;11.528;2023-11-21T07:18:55;96601.59;;;7.15;86.77
83185;BME280;73080;48.768;11.528;2023-11-21T07:21:20;96598.19;;;7.15;86.54
83185;BME280;73080;48.768;11.528;2023-11-21T07:23:53;96604.63;;;7.36;85.79
83185;BME280;73080;48.768;11.528;2023-11-21T07:26:21;96596.03;;;7.12;86.30
83185;BME280;73080;48.768;11.528;2023-11-21T07:28:47;96603.19;;;7.68;85.71
83185;BME280;73080;48.768;11.528;2023-11-21T07:31:41;96606.81;;;7.04;86.59
83185;BME280;73080;48.768;11.528;2023-11-21T07:34:09;96609.41;;;7.04;86.88
83185;BME280;73080;48.768;11.528;2023-11-21T07:36:35;96609.78;;;6.84;87.53
83185;BME280;73080;48.768;11.528;2023-11-21T07:39:01;96610.34;;;6.98;87.44
83185;BME280;73080;48.768;11.528;2023-11-21T07:41:26;96613.63;;;6.93;87.60
83185;BME280;73080;48.768;11.528;2023-11-21T07:43:51;96619.66;;;7.05;87.06
83185;BME280;73080;48.768;11.528;2023-11-21T07:46:17;96632.81;;;6.87;87.65
83185;BME280;73080;48.768;11.528;2023-11-21T07:48:43;96632.44;;;6.83;87.86
83185;BME280;73080;48.768;11.528;2023-11-21T07:51:09;96631.31;;;7.14;87.22
83185;BME280;73080;48.768;11.528;2023-11-21T07:53:35;96628.59;;;7.21;86.96
83185;BME280;73080;48.768;11.528;2023-11-21T07:56:10;96631.22;;;7.09;87.41
83185;BME280;73080;48.768;11.528;2023-11-21T07:58:38;96628.03;;;7.07;87.52
83185;BME280;73080;48.768;11.528;2023-11-21T08:01:07;96634.38;;;7.23;87.37
83185;BME280;73080;48.768;11.528;2023-11-21T08:03:32;96629.38;;;7.33;87.26
83185;BME280;73080;48.768;11.528;2023-11-21T08:06:01;96631.66;;;7.30;86.64
83185;BME280;73080;48.768;11.528;2023-11-21T08:08:29;96640.25;;;7.42;86.25
83185;BME280;73080;48.768;11.528;2023-11-21T08:10:58;96634.69;;;7.50;86.56
83185;BME280;73080;48.768;11.528;2023-11-21T08:13:24;96640.72;;;7.39;86.87
83185;BME280;73080;48.768;11.528;2023-11-21T08:15:50;96634.78;;;7.55;86.57
83185;BME280;73080;48.768;11.528;2023-11-21T08:18:19;96629.50;;;7.67;85.85
83185;BME280;73080;48.768;11.528;2023-11-21T08:20:44;96638.09;;;7.51;86.54
83185;BME280;73080;48.768;11.528;2023-11-21T08:23:09;96640.81;;;7.56;86.83
83185;BME280;73080;48.768;11.528;2023-11-21T08:25:35;96636.78;;;7.65;86.26
83185;BME280;73080;48.768;11.528;2023-11-21T08:28:00;96632.03;;;7.62;86.37
83185;BME280;73080;48.768;11.528;2023-11-21T08:30:26;96635.41;;;7.74;86.32
83185;BME280;73080;48.768;11.528;2023-11-21T08:32:51;96630.44;;;7.61;86.52
83185;BME280;73080;48.768;11.528;2023-11-21T08:35:17;96635.50;;;7.79;86.32
83185;BME280;73080;48.768;11.528;2023-11-21T08:37:45;96639.25;;;7.83;85.81
83185;BME280;73080;48.768;11.528;2023-11-21T08:40:11;96639.84;;;7.74;85.73
83185;BME280;73080;48.768;11.528;2023-11-21T08:42:37;96637.72;;;7.59;86.10
83185;BME280;73080;48.768;11.528;2023-11-21T08:45:03;96647.53;;;7.80;86.16
83185;BME280;73080;48.768;11.528;2023-11-21T08:47:28;96651.00;;;7.69;86.51
83185;BME280;73080;48.768;11.528;2023-11-21T08:49:53;96655.38;;;7.80;86.69
83185;BME280;73080;48.768;11.528;2023-11-21T08:52:19;96652.50;;;7.93;85.94
83185;BME280;73080;48.768;11.528;2023-11-21T08:54:44;96661.84;;;7.89;84.91
83185;BME280;73080;48.768;11.528;2023-11-21T08:57:10;96655.53;;;8.02;84.80
83185;BME280;73080;48.768;11.528;2023-11-21T08:59:35;96662.06;;;8.16;84.35
83185;BME280;73080;48.768;11.528;2023-11-21T09:02:10;96654.75;;;8.02;84.52
83185;BME280;73080;48.768;11.528;2023-11-21T09:04:35;96663.50;;;8.24;84.94
83185;BME280;73080;48.768;11.528;2023-11-21T09:07:00;96666.84;;;8.48;83.69
83185;BME280;73080;48.768;11.528;2023-11-21T09:09:26;96663.88;;;8.44;83.56
83185;BME280;73080;48.768;11.528;2023-11-21T09:11:54;96669.91;;;8.16;84.04
83185;BME280;73080;48.768;11.528;2023-11-21T09:14:19;96673.00;;;8.13;84.35
83185;BME280;73080;48.768;11.528;2023-11-21T09:16:45;96675.13;;;8.16;84.50
83185;BME280;73080;48.768;11.528;2023-11-21T09:19:10;96685.19;;;8.36;83.44
83185;BME280;73080;48.768;11.528;2023-11-21T09:21:35;96681.09;;;8.40;83.53
83185;BME280;73080;48.768;11.528;2023-11-21T09:24:04;96687.84;;;8.24;84.56
83185;BME280;73080;48.768;11.528;2023-11-21T09:26:29;96690.69;;;8.23;83.48
83185;BME280;73080;48.768;11.528;2023-11-21T09:28:55;96684.81;;;8.16;83.71
83185;BME280;73080;48.768;11.528;2023-11-21T09:31:20;96683.88;;;8.50;82.85
83185;BME280;73080;48.768;11.528;2023-11-21T09:33:46;96691.19;;;8.48;83.05
83185;BME280;73080;48.768;11.528;2023-11-21T09:36:17;96693.50;;;8.33;83.46
83185;BME280;73080;48.768;11.528;2023-11-21T09:38:43;96693.59;;;8.38;83.40
83185;BME280;73080;48.768;11.528;2023-11-21T09:41:27;96697.09;;;8.44;83.30
83185;BME280;73080;48.768;11.528;2023-11-21T09:44:02;96700.50;;;8.44;83.67
83185;BME280;73080;48.768;11.528;2023-11-21T09:46:29;96696.69;;;8.35;83.26
83185;BME280;73080;48.768;11.528;2023-11-21T09:48:57;96697.50;;;8.52;83.35
83185;BME280;73080;48.768;11.528;2023-11-21T09:51:27;96704.97;;;8.44;83.71
83185;BME280;73080;48.768;11.528;2023-11-21T09:53:52;96698.97;;;8.60;82.78
83185;BME280;73080;48.768;11.528;2023-11-21T09:56:21;96704.63;;;8.69;82.53
83185;BME280;73080;48.768;11.528;2023-11-21T09:58:47;96699.94;;;8.71;82.43
83185;BME280;73080;48.768;11.528;2023-11-21T10:01:16;96695.97;;;8.85;82.14
83185;BME280;73080;48.768;11.528;2023-11-21T10:03:45;96692.47;;;8.79;82.47
83185;BME280;73080;48.768;11.528;2023-11-21T10:06:13;96693.97;;;8.92;81.90
83185;BME280;73080;48.768;11.528;2023-11-21T10:08:38;96692.50;;;8.96;81.68
83185;BME280;73080;48.768;11.528;2023-11-21T10:11:05;96695.66;;;8.98;81.60
83185;BME280;73080;48.768;11.528;2023-11-21T10:13:32;96698.34;;;9.03;82.12
83185;BME280;73080;48.768;11.528;2023-11-21T10:16:04;96691.69;;;8.96;82.36
83185;BME280;73080;48.768;11.528;2023-11-21T10:18:32;96686.91;;;8.93;82.65
83185;BME280;73080;48.768;11.528;2023-11-21T10:20:58;96698.75;;;8.95;82.73
83185;BME280;73080;48.768;11.528;2023-11-21T10:23:23;96690.50;;;9.03;82.58
83185;BME280;73080;48.768;11.528;2023-11-21T10:25:50;96700.41;;;9.01;82.25
83185;BME280;73080;48.768;11.528;2023-11-21T10:28:15;96695.25;;;9.06;82.08
83185;BME280;73080;48.768;11.528;2023-11-21T10:30:41;96703.03;;;9.01;82.36
83185;BME280;73080;48.768;11.528;2023-11-21T10:33:07;96697.88;;;9.06;82.06
83185;BME280;73080;48.768;11.528;2023-11-21T10:35:46;96697.63;;;9.08;82.33
83185;BME280;73080;48.768;11.528;2023-11-21T10:38:13;96696.94;;;8.96;82.19
83185;BME280;73080;48.768;11.528;2023-11-21T10:40:38;96696.44;;;8.99;82.12
83185;BME280;73080;48.768;11.528;2023-11-21T10:43:10;96697.88;;;9.06;81.68
83185;BME280;73080;48.768;11.528;2023-11-21T10:45:40;96703.19;;;9.12;82.10
83185;BME280;73080;48.768;11.528;2023-11-21T10:48:23;96705.47;;;9.25;81.75
83185;BME280;73080;48.768;11.528;2023-11-21T10:50:48;96703.16;;;9.28;81.45
83185;BME280;73080;48.768;11.528;2023-11-21T10:53:14;96706.03;;;9.27;81.81
83185;BME280;73080;48.768;11.528;2023-11-21T10:55:39;96711.59;;;9.30;81.47
83185;BME280;73080;48.768;11.528;2023-11-21T10:58:06;96697.13;;;9.28;81.23
83185;BME280;73080;48.768;11.528;2023-11-21T11:00:32;96705.63;;;9.35;81.62
83185;BME280;73080;48.768;11.528;2023-11-21T11:02:59;96704.13;;;9.39;81.24
83185;BME280;73080;48.768;11.528;2023-11-21T11:05:26;96697.59;;;9.42;81.64
83185;BME280;73080;48.768;11.528;2023-11-21T11:08:00;96702.28;;;9.23;82.60
83185;BME280;73080;48.768;11.528;2023-11-21T11:10:28;96697.78;;;9.18;81.90
83185;BME280;73080;48.768;11.528;2023-11-21T11:12:54;96697.88;;;9.23;82.32
83185;BME280;73080;48.768;11.528;2023-11-21T11:15:20;96695.22;;;9.40;81.71
83185;BME280;73080;48.768;11.528;2023-11-21T11:17:46;96692.50;;;9.35;81.63
83185;BME280;73080;48.768;11.528;2023-11-21T11:20:13;96694.19;;;9.41;81.85
83185;BME280;73080;48.768;11.528;2023-11-21T11:28:42;96684.13;;;9.33;80.49
83185;BME280;73080;48.768;11.528;2023-11-21T11:34:11;96691.81;;;9.40;80.96
83185;BME280;73080;48.768;11.528;2023-11-21T11:36:47;96687.72;;;9.49;80.81
83185;BME280;73080;48.768;11.528;2023-11-21T11:39:42;96685.38;;;9.69;81.00
83185;BME280;73080;48.768;11.528;2023-11-21T11:42:12;96680.38;;;9.68;80.79
83185;BME280;73080;48.768;11.528;2023-11-21T11:47:13;96692.69;;;9.28;80.30
83185;BME280;73080;48.768;11.528;2023-11-21T11:50:07;96690.63;;;9.69;80.00
83185;BME280;73080;48.768;11.528;2023-11-21T11:52:43;96689.50;;;9.65;79.73
83185;BME280;73080;48.768;11.528;2023-11-21T11:55:21;96683.00;;;9.68;79.17
83185;BME280;73080;48.768;11.528;2023-11-21T11:57:51;96686.78;;;9.77;78.78
83185;BME280;73080;48.768;11.528;2023-11-21T12:00:21;96688.31;;;9.95;79.28
83185;BME280;73080;48.768;11.528;2023-11-21T12:02:54;96689.56;;;9.92;79.24
83185;BME280;73080;48.768;11.528;2023-11-21T12:05:23;96693.97;;;9.86;79.42
83185;BME280;73080;48.768;11.528;2023-11-21T12:07:55;96687.19;;;10.12;78.97
83185;BME280;73080;48.768;11.528;2023-11-21T12:10:22;96690.91;;;10.16;78.39
83185;BME280;73080;48.768;11.528;2023-11-21T12:12:49;96681.84;;;10.24;77.69
83185;BME280;73080;48.768;11.528;2023-11-21T12:15:15;96691.16;;;10.37;76.30
83185;BME280;73080;48.768;11.528;2023-11-21T12:17:42;96685.41;;;10.18;77.38
83185;BME280;73080;48.768;11.528;2023-11-21T12:20:09;96685.31;;;10.30;77.08
83185;BME280;73080;48.768;11.528;2023-11-21T12:22:37;96686.94;;;10.14;77.56
83185;BME280;73080;48.768;11.528;2023-11-21T12:25:03;96682.53;;;10.19;76.98
83185;BME280;73080;48.768;11.528;2023-11-21T12:27:28;96690.97;;;10.49;76.52
83185;BME280;73080;48.768;11.528;2023-11-21T12:29:54;96682.31;;;10.48;75.70
83185;BME280;73080;48.768;11.528;2023-11-21T12:32:19;96690.25;;;9.82;77.85
83185;BME280;73080;48.768;11.528;2023-11-21T12:34:45;96692.06;;;10.04;76.96
83185;BME280;73080;48.768;11.528;2023-11-21T12:37:10;96691.53;;;10.24;77.51
83185;BME280;73080;48.768;11.528;2023-11-21T12:39:36;96699.16;;;10.52;76.08
83185;BME280;73080;48.768;11.528;2023-11-21T12:42:01;96704.81;;;10.66;75.07
83185;BME280;73080;48.768;11.528;2023-11-21T12:44:27;96700.22;;;10.51;74.77
83185;BME280;73080;48.768;11.528;2023-11-21T12:46:53;96697.88;;;10.55;74.68
83185;BME280;73080;48.768;11.528;2023-11-21T12:49:18;96699.22;;;10.57;74.95
83185;BME280;73080;48.768;11.528;2023-11-21T12:51:45;96711.75;;;10.23;75.79
83185;BME280;73080;48.768;11.528;2023-11-21T12:54:12;96698.06;;;10.48;75.03
83185;BME280;73080;48.768;11.528;2023-11-21T12:56:41;96703.31;;;10.48;75.41
83185;BME280;73080;48.768;11.528;2023-11-21T12:59:06;96708.56;;;10.75;74.22
83185;BME280;73080;48.768;11.528;2023-11-21T13:01:34;96703.97;;;10.60;74.27
83185;BME280;73080;48.768;11.528;2023-11-21T13:04:00;96704.09;;;10.76;73.03
83185;BME280;73080;48.768;11.528;2023-11-21T13:06:25;96707.63;;;10.86;72.99
83185;BME280;73080;48.768;11.528;2023-11-21T13:08:50;96705.19;;;10.80;72.97